Time;durP1;ratioP1;P1;durP2;ratioP2;P2;SDS_P1;SDS_P2;PMS_P1;PMS_P2;Temp;Humidity;BMP_temperature;BMP_pressure;BME280_temperature;BME280_humidity;BME280_pressure;Samples;Min_cycle;Max_cycle;Signal;HPM_P1;HPM_P2
2023/06/18 00:00:58;;;;;;;7.43;2.30;;;;;;;;;;4995046;28;20078;-61
2023/06/18 00:03:25;;;;;;;4.90;2.50;;;;;;;;;;5010188;28;20052;-60
2023/06/18 00:05:55;;;;;;;5.47;2.15;;;;;;;;;;5015926;28;20417;-59
2023/06/18 00:08:21;;;;;;;4.53;2.17;;;;;;;;;;5015447;28;20034;-65
2023/06/18 00:10:48;;;;;;;3.90;2.00;;;;;;;;;;4997111;28;20120;-62
2023/06/18 00:13:15;;;;;;;4.25;1.73;;;;;;;;;;5014691;28;20045;-62
2023/06/18 00:15:42;;;;;;;5.22;2.20;;;;;;;;;;5014167;28;20055;-61
2023/06/18 00:18:09;;;;;;;8.20;1.88;;;;;;;;;;5013455;28;20662;-64
2023/06/18 00:20:36;;;;;;;5.50;1.40;;;;;;;;;;5012189;28;20037;-58
2023/06/18 00:23:03;;;;;;;4.35;1.58;;;;;;;;;;5011469;28;20061;-58
2023/06/18 00:25:29;;;;;;;5.28;1.42;;;;;;;;;;5010186;28;20493;-61
2023/06/18 00:27:56;;;;;;;5.35;1.40;;;;;;;;;;5006106;28;20871;-59
2023/06/18 00:30:23;;;;;;;4.03;1.20;;;;;;;;;;5009097;28;21103;-57
2023/06/18 00:32:51;;;;;;;5.72;1.52;;;;;;;;;;5008987;28;20053;-61
2023/06/18 00:35:17;;;;;;;7.65;1.60;;;;;;;;;;5009114;28;20041;-60
2023/06/18 00:37:44;;;;;;;5.00;1.40;;;;;;;;;;5004712;28;20052;-60
2023/06/18 00:40:17;;;;;;;6.15;1.58;;;;;;;;;;4999917;28;20041;-59
2023/06/18 00:42:43;;;;;;;;;;;;;;;;;;4995648;28;20272;-61
2023/06/18 00:45:11;;;;;;;11.85;1.75;;;;;;;;;;5008601;28;19921;-63
2023/06/18 00:47:44;;;;;;;8.60;1.90;;;;;;;;;;5005423;28;20042;-61
2023/06/18 00:50:15;;;;;;;10.65;2.03;;;;;;;;;;5007831;28;20145;-62
2023/06/18 00:52:47;;;;;;;7.03;2.20;;;;;;;;;;4991097;28;20595;-62
2023/06/18 00:55:16;;;;;;;11.43;2.97;;;;;;;;;;5007484;28;20092;-63
2023/06/18 00:57:44;;;;;;;9.27;2.90;;;;;;;;;;5005074;28;20045;-60
2023/06/18 01:00:14;;;;;;;12.68;3.22;;;;;;;;;;5007378;28;20080;-61
2023/06/18 01:02:45;;;;;;;8.05;2.67;;;;;;;;;;5007671;28;20614;-63
2023/06/18 01:05:15;;;;;;;6.60;2.40;;;;;;;;;;5007546;28;20052;-64
2023/06/18 01:07:43;;;;;;;7.45;2.53;;;;;;;;;;4983904;28;20050;-62
2023/06/18 01:10:11;;;;;;;5.00;1.95;;;;;;;;;;5006877;28;20052;-63
2023/06/18 01:12:38;;;;;;;6.60;2.10;;;;;;;;;;4994971;28;20384;-62
2023/06/18 01:15:05;;;;;;;6.05;1.80;;;;;;;;;;4985900;28;20398;-64
2023/06/18 01:17:37;;;;;;;3.45;1.23;;;;;;;;;;4977451;28;20046;-64
2023/06/18 01:20:11;;;;;;;4.05;1.48;;;;;;;;;;4979393;28;20137;-64
2023/06/18 01:22:53;;;;;;;3.63;1.23;;;;;;;;;;4987173;28;20128;-65
2023/06/18 01:25:20;;;;;;;3.83;1.33;;;;;;;;;;4969472;28;20049;-64
2023/06/18 01:27:47;;;;;;;3.63;1.20;;;;;;;;;;4985167;28;20574;-64
2023/06/18 01:30:14;;;;;;;4.93;1.50;;;;;;;;;;4986308;28;20049;-64
2023/06/18 01:32:41;;;;;;;3.85;1.23;;;;;;;;;;4977075;28;20051;-65
2023/06/18 01:35:14;;;;;;;4.07;1.25;;;;;;;;;;4974414;28;20034;-64
2023/06/18 01:37:59;;;;;;;3.88;1.45;;;;;;;;;;4979560;28;20048;-65
2023/06/18 01:40:32;;;;;;;5.60;1.75;;;;;;;;;;4967955;28;20082;-65
2023/06/18 01:42:58;;;;;;;;;;;;;;;;;;4967923;28;20122;-64
2023/06/18 01:45:28;;;;;;;6.05;2.53;;;;;;;;;;4975658;28;19921;-65
2023/06/18 01:47:56;;;;;;;4.25;1.90;;;;;;;;;;4982404;28;20039;-67
2023/06/18 01:50:26;;;;;;;6.57;2.30;;;;;;;;;;4967633;28;20052;-66
2023/06/18 01:52:53;;;;;;;5.15;2.15;;;;;;;;;;4984268;28;20050;-63
2023/06/18 01:55:21;;;;;;;3.95;1.88;;;;;;;;;;4984517;28;20049;-66
2023/06/18 01:57:48;;;;;;;4.53;1.88;;;;;;;;;;4983171;28;20084;-65
2023/06/18 02:00:15;;;;;;;6.40;2.10;;;;;;;;;;4985837;28;20046;-65
2023/06/18 02:02:42;;;;;;;4.75;2.00;;;;;;;;;;4983417;28;20762;-65
2023/06/18 02:05:09;;;;;;;5.72;1.90;;;;;;;;;;4978414;28;20084;-65
2023/06/18 02:07:36;;;;;;;4.55;1.73;;;;;;;;;;4984466;28;20042;-65
2023/06/18 02:10:02;;;;;;;4.60;1.73;;;;;;;;;;4967081;28;20099;-65
2023/06/18 02:12:29;;;;;;;5.82;1.92;;;;;;;;;;4996621;28;20175;-65
2023/06/18 02:14:55;;;;;;;6.82;2.25;;;;;;;;;;4981327;28;20042;-64
2023/06/18 02:17:22;;;;;;;6.05;1.98;;;;;;;;;;4984314;28;20096;-62
2023/06/18 02:19:49;;;;;;;5.03;1.95;;;;;;;;;;4985753;28;20045;-62
2023/06/18 02:22:16;;;;;;;6.35;1.92;;;;;;;;;;4983039;28;20038;-62
2023/06/18 02:24:44;;;;;;;4.20;1.60;;;;;;;;;;4986933;28;20065;-62
2023/06/18 02:27:10;;;;;;;4.15;1.80;;;;;;;;;;4988407;28;20039;-64
2023/06/18 02:29:37;;;;;;;5.68;2.00;;;;;;;;;;4986248;28;22612;-63
2023/06/18 02:32:04;;;;;;;5.97;1.70;;;;;;;;;;4988510;28;20121;-63
2023/06/18 02:34:31;;;;;;;7.40;1.65;;;;;;;;;;4986031;28;21069;-64
2023/06/18 02:36:58;;;;;;;5.75;1.90;;;;;;;;;;4982245;28;22134;-65
2023/06/18 02:39:24;;;;;;;3.90;1.67;;;;;;;;;;4973038;28;20042;-66
2023/06/18 02:41:51;;;;;;;3.83;1.60;;;;;;;;;;4985011;28;20642;-65
2023/06/18 02:44:18;;;;;;;4.10;1.60;;;;;;;;;;4989301;28;20042;-65
2023/06/18 02:46:44;;;;;;;4.38;1.92;;;;;;;;;;4990053;28;20503;-65
2023/06/18 02:49:11;;;;;;;5.32;1.67;;;;;;;;;;4991893;28;20030;-64
2023/06/18 02:51:38;;;;;;;4.97;1.80;;;;;;;;;;4987998;28;20112;-65
2023/06/18 02:54:04;;;;;;;7.88;1.83;;;;;;;;;;4989387;28;20038;-65
2023/06/18 02:56:31;;;;;;;5.13;1.67;;;;;;;;;;4972910;28;20058;-64
2023/06/18 02:58:58;;;;;;;3.47;1.40;;;;;;;;;;4965514;28;20533;-64
2023/06/18 03:01:25;;;;;;;3.58;1.42;;;;;;;;;;4986397;28;20037;-65
2023/06/18 03:03:53;;;;;;;5.90;1.77;;;;;;;;;;4984348;28;20047;-65
2023/06/18 03:06:20;;;;;;;5.15;1.67;;;;;;;;;;4986693;28;20855;-64
2023/06/18 03:08:46;;;;;;;4.28;1.80;;;;;;;;;;4986095;28;20042;-65
2023/06/18 03:11:13;;;;;;;4.03;1.50;;;;;;;;;;4986840;28;20561;-65
2023/06/18 03:13:40;;;;;;;4.25;1.88;;;;;;;;;;4988640;28;20951;-63
2023/06/18 03:16:07;;;;;;;4.93;1.98;;;;;;;;;;4992648;28;20049;-64
2023/06/18 03:18:33;;;;;;;4.18;1.83;;;;;;;;;;4983374;28;20042;-67
2023/06/18 03:21:00;;;;;;;4.63;1.70;;;;;;;;;;4987483;28;20037;-63
2023/06/18 03:23:27;;;;;;;6.85;2.10;;;;;;;;;;4983401;28;20039;-57
2023/06/18 03:25:53;;;;;;;4.90;2.20;;;;;;;;;;4990866;28;21022;-60
2023/06/18 03:28:21;;;;;;;5.72;2.17;;;;;;;;;;4989430;28;20038;-65
2023/06/18 03:30:48;;;;;;;5.03;2.00;;;;;;;;;;4987956;28;20156;-66
2023/06/18 03:33:17;;;;;;;5.97;2.30;;;;;;;;;;4984931;28;20038;-62
2023/06/18 03:35:46;;;;;;;4.43;2.13;;;;;;;;;;4957640;28;20112;-61
2023/06/18 03:38:13;;;;;;;5.18;2.35;;;;;;;;;;4968057;28;20061;-62
2023/06/18 03:40:40;;;;;;;7.53;2.53;;;;;;;;;;4991012;28;20482;-63
2023/06/18 03:43:07;;;;;;;6.03;2.38;;;;;;;;;;4971743;28;20042;-63
2023/06/18 03:45:34;;;;;;;6.32;2.33;;;;;;;;;;4985860;28;20552;-63
2023/06/18 03:48:01;;;;;;;4.63;2.10;;;;;;;;;;4985830;28;20071;-61
2023/06/18 03:50:28;;;;;;;4.88;2.45;;;;;;;;;;4990816;28;20053;-65
2023/06/18 03:52:55;;;;;;;4.80;2.15;;;;;;;;;;4990520;28;20046;-63
2023/06/18 03:55:21;;;;;;;6.25;2.40;;;;;;;;;;4986007;28;20050;-63
2023/06/18 03:57:48;;;;;;;9.70;2.70;;;;;;;;;;4974760;28;20046;-64
2023/06/18 04:00:15;;;;;;;7.55;3.00;;;;;;;;;;4989657;28;20376;-62
2023/06/18 04:02:42;;;;;;;7.25;2.40;;;;;;;;;;4977068;28;20045;-62
2023/06/18 04:05:10;;;;;;;5.85;2.53;;;;;;;;;;4987538;28;20041;-64
2023/06/18 04:07:36;;;;;;;9.23;2.97;;;;;;;;;;4988979;28;20048;-64
2023/06/18 04:10:03;;;;;;;5.82;2.45;;;;;;;;;;4989744;28;20041;-63
2023/06/18 04:12:30;;;;;;;5.20;2.22;;;;;;;;;;4979354;28;20047;-63
2023/06/18 04:14:56;;;;;;;6.13;2.67;;;;;;;;;;4983803;28;20614;-65
2023/06/18 04:17:26;;;;;;;4.53;2.13;;;;;;;;;;4987215;28;20029;-62
2023/06/18 04:19:52;;;;;;;5.78;2.25;;;;;;;;;;4977419;28;20400;-63
2023/06/18 04:22:19;;;;;;;5.90;2.42;;;;;;;;;;4979560;28;20562;-61
2023/06/18 04:24:46;;;;;;;5.47;2.60;;;;;;;;;;4975999;28;20527;-57
2023/06/18 04:27:12;;;;;;;5.38;2.15;;;;;;;;;;4984640;28;20093;-63
2023/06/18 04:29:39;;;;;;;5.13;2.20;;;;;;;;;;4956597;28;20069;-63
2023/06/18 04:32:08;;;;;;;7.05;2.50;;;;;;;;;;4980798;28;20562;-64
2023/06/18 04:34:34;;;;;;;8.73;2.67;;;;;;;;;;4960738;28;20061;-63
2023/06/18 04:37:01;;;;;;;5.97;2.13;;;;;;;;;;4980729;28;20502;-64
2023/06/18 04:39:28;;;;;;;5.18;2.35;;;;;;;;;;4985942;28;20046;-62
2023/06/18 04:41:54;;;;;;;9.88;2.42;;;;;;;;;;4984799;28;20687;-61
2023/06/18 04:44:21;;;;;;;5.18;2.35;;;;;;;;;;4980611;28;20042;-63
2023/06/18 04:46:47;;;;;;;6.15;2.33;;;;;;;;;;4984130;28;20768;-64
2023/06/18 04:49:14;;;;;;;4.57;2.15;;;;;;;;;;4974185;28;20109;-63
2023/06/18 04:51:43;;;;;;;5.95;2.25;;;;;;;;;;4973118;28;20414;-64
2023/06/18 04:54:11;;;;;;;6.25;2.30;;;;;;;;;;4981214;28;20525;-63
2023/06/18 04:56:37;;;;;;;4.32;2.00;;;;;;;;;;4979093;28;20038;-64
2023/06/18 04:59:04;;;;;;;5.80;2.08;;;;;;;;;;4981490;28;20125;-62
2023/06/18 05:01:31;;;;;;;4.57;2.20;;;;;;;;;;4981518;28;20060;-63
2023/06/18 05:03:57;;;;;;;5.72;2.22;;;;;;;;;;4989047;28;20038;-62
2023/06/18 05:06:24;;;;;;;5.07;2.17;;;;;;;;;;4981100;28;21810;-63
2023/06/18 05:08:50;;;;;;;6.15;1.83;;;;;;;;;;4983656;28;20075;-64
2023/06/18 05:11:18;;;;;;;4.57;2.00;;;;;;;;;;4985575;28;20094;-63
2023/06/18 05:13:44;;;;;;;4.03;1.75;;;;;;;;;;5007143;28;20045;-62
2023/06/18 05:16:11;;;;;;;3.90;1.80;;;;;;;;;;5007912;28;20068;-64
2023/06/18 05:18:38;;;;;;;7.43;2.03;;;;;;;;;;5002449;28;20042;-63
2023/06/18 05:21:05;;;;;;;4.15;1.67;;;;;;;;;;4997548;28;20046;-62
2023/06/18 05:23:31;;;;;;;7.55;1.90;;;;;;;;;;4999891;28;20298;-62
2023/06/18 05:25:58;;;;;;;5.15;1.70;;;;;;;;;;5009262;28;20048;-62
2023/06/18 05:28:25;;;;;;;4.25;1.73;;;;;;;;;;5007099;28;20057;-60
2023/06/18 05:30:51;;;;;;;4.70;1.70;;;;;;;;;;5009534;28;20139;-63
2023/06/18 05:33:18;;;;;;;6.32;2.05;;;;;;;;;;5009171;28;20095;-64
2023/06/18 05:35:45;;;;;;;5.45;1.75;;;;;;;;;;5007338;28;20125;-63
2023/06/18 05:38:12;;;;;;;4.38;1.40;;;;;;;;;;5007370;28;20360;-62
2023/06/18 05:40:38;;;;;;;3.63;1.42;;;;;;;;;;5008533;28;20117;-62
2023/06/18 05:43:05;;;;;;;4.65;1.52;;;;;;;;;;5008480;28;20068;-62
2023/06/18 05:45:32;;;;;;;4.05;1.40;;;;;;;;;;5008917;28;20049;-63
2023/06/18 05:47:58;;;;;;;3.53;1.20;;;;;;;;;;5007829;28;20056;-62
2023/06/18 05:50:25;;;;;;;3.70;1.40;;;;;;;;;;5008362;28;20858;-62
2023/06/18 05:52:51;;;;;;;3.72;1.33;;;;;;;;;;4985785;28;20037;-63
2023/06/18 05:55:18;;;;;;;3.55;1.30;;;;;;;;;;5008550;28;20092;-62
2023/06/18 05:57:46;;;;;;;4.60;1.45;;;;;;;;;;5006678;28;20175;-62
2023/06/18 06:00:13;;;;;;;4.75;1.30;;;;;;;;;;5007329;28;20045;-62
2023/06/18 06:02:41;;;;;;;4.30;1.20;;;;;;;;;;5008080;28;20045;-64
2023/06/18 06:05:08;;;;;;;4.50;1.77;;;;;;;;;;5009211;28;20107;-62
2023/06/18 06:07:35;;;;;;;6.38;1.50;;;;;;;;;;5008134;28;20451;-62
2023/06/18 06:10:01;;;;;;;2.92;1.15;;;;;;;;;;5009407;28;20045;-63
2023/06/18 06:12:28;;;;;;;3.20;1.23;;;;;;;;;;4995957;28;21221;-62
2023/06/18 06:14:54;;;;;;;4.00;1.40;;;;;;;;;;5009156;28;20048;-62
2023/06/18 06:17:21;;;;;;;3.13;1.20;;;;;;;;;;5007043;28;20042;-64
2023/06/18 06:19:48;;;;;;;5.15;1.42;;;;;;;;;;5005853;28;20059;-62
2023/06/18 06:22:14;;;;;;;3.13;1.30;;;;;;;;;;5000326;28;20132;-62
2023/06/18 06:24:41;;;;;;;3.63;1.50;;;;;;;;;;5007524;28;20675;-63
2023/06/18 06:27:08;;;;;;;4.82;1.23;;;;;;;;;;5004990;28;20029;-63
2023/06/18 06:29:34;;;;;;;3.17;1.30;;;;;;;;;;5006546;28;20191;-62
2023/06/18 06:32:01;;;;;;;3.25;1.20;;;;;;;;;;5008791;28;20033;-62
2023/06/18 06:34:27;;;;;;;3.88;1.42;;;;;;;;;;5005976;28;20038;-62
2023/06/18 06:36:54;;;;;;;3.20;1.20;;;;;;;;;;5006188;28;20371;-62
2023/06/18 06:39:21;;;;;;;3.63;1.33;;;;;;;;;;5007859;28;20045;-62
2023/06/18 06:41:47;;;;;;;3.47;1.30;;;;;;;;;;5008004;28;20417;-64
2023/06/18 06:44:14;;;;;;;3.55;1.50;;;;;;;;;;5007624;28;20048;-62
2023/06/18 06:46:41;;;;;;;4.75;1.55;;;;;;;;;;4988375;28;20601;-67
2023/06/18 06:49:07;;;;;;;4.50;1.33;;;;;;;;;;5007966;28;20048;-64
2023/06/18 06:51:35;;;;;;;4.28;1.40;;;;;;;;;;5006637;28;20442;-62
2023/06/18 06:54:02;;;;;;;3.42;1.23;;;;;;;;;;5009298;28;20053;-61
2023/06/18 06:56:28;;;;;;;3.28;1.27;;;;;;;;;;5006726;28;20431;-61
2023/06/18 06:58:56;;;;;;;4.55;1.40;;;;;;;;;;5007257;28;20045;-61
2023/06/18 07:01:22;;;;;;;10.38;1.88;;;;;;;;;;5008241;28;20052;-60
2023/06/18 07:03:49;;;;;;;15.27;2.15;;;;;;;;;;5009345;28;20141;-60
2023/06/18 07:06:16;;;;;;;7.82;1.67;;;;;;;;;;5008308;28;20040;-61
2023/06/18 07:08:42;;;;;;;7.53;1.77;;;;;;;;;;5007098;28;20040;-62
2023/06/18 07:11:09;;;;;;;7.82;1.77;;;;;;;;;;4996505;28;20380;-62
2023/06/18 07:13:36;;;;;;;5.32;1.50;;;;;;;;;;4985701;28;20132;-63
2023/06/18 07:16:03;;;;;;;5.43;1.70;;;;;;;;;;4991180;28;20037;-60
2023/06/18 07:18:29;;;;;;;4.80;1.70;;;;;;;;;;4983414;28;20056;-61
2023/06/18 07:20:56;;;;;;;4.60;1.90;;;;;;;;;;4991999;28;20122;-60
2023/06/18 07:23:22;;;;;;;5.15;1.75;;;;;;;;;;4991052;28;20042;-61
2023/06/18 07:25:49;;;;;;;4.22;1.88;;;;;;;;;;4993311;28;20053;-62
2023/06/18 07:28:16;;;;;;;3.60;1.65;;;;;;;;;;4991185;28;20133;-64
2023/06/18 07:30:43;;;;;;;5.97;1.95;;;;;;;;;;4992341;28;20053;-60
2023/06/18 07:33:09;;;;;;;4.82;1.70;;;;;;;;;;4991015;28;20512;-60
2023/06/18 07:35:36;;;;;;;4.97;1.92;;;;;;;;;;4990560;28;20069;-62
2023/06/18 07:38:03;;;;;;;5.60;2.20;;;;;;;;;;4992544;28;20140;-61
2023/06/18 07:40:33;;;;;;;4.78;2.08;;;;;;;;;;4988088;28;20051;-63
2023/06/18 07:43:00;;;;;;;6.95;2.20;;;;;;;;;;4990901;28;20202;-61
2023/06/18 07:45:26;;;;;;;4.00;1.88;;;;;;;;;;4967568;28;20491;-63
2023/06/18 07:47:53;;;;;;;4.85;2.30;;;;;;;;;;4990290;28;20042;-63
2023/06/18 07:50:20;;;;;;;4.68;2.17;;;;;;;;;;4991158;28;20069;-62
2023/06/18 07:52:46;;;;;;;5.70;2.28;;;;;;;;;;4988361;28;20042;-62
2023/06/18 07:55:13;;;;;;;5.97;2.13;;;;;;;;;;4989732;28;20129;-61
2023/06/18 07:57:40;;;;;;;4.07;1.92;;;;;;;;;;4980376;28;20041;-62
2023/06/18 08:00:06;;;;;;;4.53;2.15;;;;;;;;;;4990945;28;21854;-62
2023/06/18 08:02:33;;;;;;;7.05;2.10;;;;;;;;;;4989966;28;20096;-60
2023/06/18 08:05:00;;;;;;;5.05;1.98;;;;;;;;;;4990389;28;20065;-61
2023/06/18 08:07:26;;;;;;;7.75;2.00;;;;;;;;;;4992623;28;20053;-61
2023/06/18 08:09:53;;;;;;;4.30;2.22;;;;;;;;;;4993753;28;20495;-61
2023/06/18 08:12:19;;;;;;;4.90;2.20;;;;;;;;;;4996068;28;20050;-60
2023/06/18 08:14:46;;;;;;;4.65;2.00;;;;;;;;;;4991968;28;20117;-61
2023/06/18 08:17:16;;;;;;;4.50;1.98;;;;;;;;;;5008279;28;20498;-61
2023/06/18 08:19:47;;;;;;;13.60;3.60;;;;;;;;;;5006999;28;20100;-61
2023/06/18 08:22:15;;;;;;;5.22;1.95;;;;;;;;;;5008650;28;20049;-62
2023/06/18 08:24:42;;;;;;;4.20;1.95;;;;;;;;;;5006890;28;20037;-64
2023/06/18 08:27:09;;;;;;;4.85;1.98;;;;;;;;;;5005310;28;20109;-60
2023/06/18 08:29:36;;;;;;;4.30;1.90;;;;;;;;;;5005068;28;20072;-60
2023/06/18 08:32:05;;;;;;;3.95;1.90;;;;;;;;;;5006590;28;20133;-61
2023/06/18 08:34:32;;;;;;;3.67;1.77;;;;;;;;;;5004652;28;20100;-61
2023/06/18 08:37:00;;;;;;;4.15;1.90;;;;;;;;;;5004375;28;20037;-60
2023/06/18 08:39:27;;;;;;;4.18;1.88;;;;;;;;;;4987866;28;20402;-60
2023/06/18 08:42:02;;;;;;;4.80;1.50;;;;;;;;;;5004658;28;20205;-64
2023/06/18 08:44:35;;;;;;;4.13;1.77;;;;;;;;;;5006277;28;20049;-61
2023/06/18 08:47:03;;;;;;;4.43;2.00;;;;;;;;;;5004823;28;20244;-60
2023/06/18 08:49:33;;;;;;;3.42;1.50;;;;;;;;;;5005498;28;20128;-63
2023/06/18 08:52:01;;;;;;;4.72;1.80;;;;;;;;;;5006511;28;20045;-61
2023/06/18 08:54:31;;;;;;;3.40;1.42;;;;;;;;;;5004765;28;20067;-61
2023/06/18 08:57:08;;;;;;;3.15;1.27;;;;;;;;;;5004763;28;20037;-61
2023/06/18 08:59:35;;;;;;;5.07;1.80;;;;;;;;;;5005046;28;20081;-61
2023/06/18 09:02:02;;;;;;;5.10;1.48;;;;;;;;;;5007637;28;20042;-61
2023/06/18 09:04:29;;;;;;;3.70;1.33;;;;;;;;;;4998476;28;20092;-61
2023/06/18 09:06:56;;;;;;;4.28;1.52;;;;;;;;;;5005656;28;20245;-61
2023/06/18 09:09:23;;;;;;;3.55;1.60;;;;;;;;;;4999999;28;20049;-62
2023/06/18 09:11:50;;;;;;;4.03;1.42;;;;;;;;;;5004872;28;20061;-63
2023/06/18 09:14:16;;;;;;;3.38;1.48;;;;;;;;;;4999593;28;20037;-63
2023/06/18 09:16:43;;;;;;;4.15;1.48;;;;;;;;;;4998556;28;20798;-64
2023/06/18 09:19:10;;;;;;;4.38;1.67;;;;;;;;;;5000583;28;20034;-60
2023/06/18 09:21:40;;;;;;;3.55;1.50;;;;;;;;;;5002531;28;20494;-62
2023/06/18 09:24:07;;;;;;;5.28;1.70;;;;;;;;;;4982385;28;20088;-62
2023/06/18 09:26:35;;;;;;;3.78;1.60;;;;;;;;;;4982725;28;20125;-66
2023/06/18 09:29:05;;;;;;;3.70;1.40;;;;;;;;;;4981274;28;20466;-62
2023/06/18 09:31:32;;;;;;;3.35;1.48;;;;;;;;;;4980957;28;20648;-62
2023/06/18 09:33:59;;;;;;;4.07;1.80;;;;;;;;;;4999757;28;20038;-63
2023/06/18 09:36:25;;;;;;;4.93;1.50;;;;;;;;;;4982661;28;20046;-61
2023/06/18 09:38:54;;;;;;;4.78;1.77;;;;;;;;;;4996578;28;20034;-63
2023/06/18 09:41:20;;;;;;;3.83;1.70;;;;;;;;;;4997072;28;20046;-63
2023/06/18 09:43:48;;;;;;;5.80;1.90;;;;;;;;;;4999340;28;20180;-63
2023/06/18 09:46:16;;;;;;;4.50;1.88;;;;;;;;;;4999074;28;20040;-63
2023/06/18 09:48:43;;;;;;;5.30;1.85;;;;;;;;;;4999018;28;20038;-63
2023/06/18 09:51:10;;;;;;;5.05;1.60;;;;;;;;;;5001779;28;20061;-61
2023/06/18 09:53:37;;;;;;;3.85;1.70;;;;;;;;;;5001724;28;20056;-63
2023/06/18 09:56:13;;;;;;;3.97;1.75;;;;;;;;;;4971073;28;20053;-63
2023/06/18 09:58:42;;;;;;;4.30;1.70;;;;;;;;;;4994741;28;20038;-61
2023/06/18 10:01:09;;;;;;;5.00;1.88;;;;;;;;;;4998549;28;20414;-62
2023/06/18 10:03:36;;;;;;;3.65;1.73;;;;;;;;;;4980288;28;20124;-60
2023/06/18 10:06:21;;;;;;;4.03;1.90;;;;;;;;;;4999810;28;20045;-63
2023/06/18 10:08:50;;;;;;;4.57;2.10;;;;;;;;;;4999843;28;20509;-62
2023/06/18 10:11:18;;;;;;;3.90;1.73;;;;;;;;;;4999968;28;20053;-62
2023/06/18 10:13:47;;;;;;;5.10;2.17;;;;;;;;;;5019720;28;20054;-61
2023/06/18 10:16:20;;;;;;;4.38;2.30;;;;;;;;;;5021106;28;20460;-61
2023/06/18 10:18:54;;;;;;;4.07;1.83;;;;;;;;;;5019074;28;20049;-60
2023/06/18 10:21:23;;;;;;;5.97;2.15;;;;;;;;;;5018830;28;20556;-62
2023/06/18 10:23:53;;;;;;;5.40;2.30;;;;;;;;;;5020578;28;20051;-61
2023/06/18 10:26:21;;;;;;;4.35;2.15;;;;;;;;;;5018566;28;20077;-64
2023/06/18 10:28:50;;;;;;;5.70;2.50;;;;;;;;;;5019052;28;20044;-61
2023/06/18 10:31:19;;;;;;;6.40;2.28;;;;;;;;;;5019412;28;20076;-61
2023/06/18 10:33:47;;;;;;;5.38;2.70;;;;;;;;;;5019445;28;20038;-61
2023/06/18 10:36:15;;;;;;;6.13;2.63;;;;;;;;;;5019300;28;20849;-61
2023/06/18 10:38:42;;;;;;;4.88;2.58;;;;;;;;;;5017379;28;20049;-60
2023/06/18 10:41:10;;;;;;;5.72;2.72;;;;;;;;;;5018719;28;20040;-61
2023/06/18 10:43:41;;;;;;;5.05;2.70;;;;;;;;;;5018806;28;20129;-60
2023/06/18 10:46:11;;;;;;;6.05;2.58;;;;;;;;;;5023040;28;20041;-60
2023/06/18 10:48:38;;;;;;;5.95;3.33;;;;;;;;;;5021461;28;20057;-62
2023/06/18 10:51:18;;;;;;;6.88;2.70;;;;;;;;;;5023018;28;20056;-62
2023/06/18 10:53:46;;;;;;;5.93;2.67;;;;;;;;;;5006142;28;20442;-60
2023/06/18 10:56:16;;;;;;;7.70;3.13;;;;;;;;;;5022254;28;20143;-61
2023/06/18 10:58:43;;;;;;;6.35;2.88;;;;;;;;;;5021362;28;20370;-61
2023/06/18 11:01:25;;;;;;;6.85;3.28;;;;;;;;;;5022451;28;20045;-62
2023/06/18 11:04:01;;;;;;;5.68;3.03;;;;;;;;;;5023444;28;20802;-63
2023/06/18 11:06:31;;;;;;;4.97;2.78;;;;;;;;;;5020960;28;20068;-62
2023/06/18 11:08:57;;;;;;;5.80;2.90;;;;;;;;;;5022654;28;20049;-61
2023/06/18 11:11:25;;;;;;;5.95;3.25;;;;;;;;;;5020544;28;20091;-63
2023/06/18 11:13:55;;;;;;;4.78;2.80;;;;;;;;;;5002408;28;20038;-63
2023/06/18 11:16:22;;;;;;;6.10;3.10;;;;;;;;;;5002834;28;20080;-62
2023/06/18 11:18:50;;;;;;;6.72;3.47;;;;;;;;;;5004674;28;20034;-60
2023/06/18 11:21:18;;;;;;;6.32;3.83;;;;;;;;;;5003688;28;20034;-61
2023/06/18 11:23:46;;;;;;;6.47;3.42;;;;;;;;;;5001831;28;20030;-61
2023/06/18 11:26:19;;;;;;;6.93;3.78;;;;;;;;;;5001997;28;20038;-60
2023/06/18 11:28:47;;;;;;;6.88;3.00;;;;;;;;;;5002231;28;20398;-61
2023/06/18 11:31:14;;;;;;;5.93;3.38;;;;;;;;;;5004361;28;20402;-61
2023/06/18 11:33:46;;;;;;;5.93;3.67;;;;;;;;;;5000696;28;20041;-61
2023/06/18 11:36:14;;;;;;;7.63;3.45;;;;;;;;;;5003772;28;20116;-61
2023/06/18 11:38:41;;;;;;;6.70;3.45;;;;;;;;;;5002213;28;20550;-60
2023/06/18 11:41:09;;;;;;;5.90;3.53;;;;;;;;;;5002493;28;20414;-61
2023/06/18 11:43:45;;;;;;;6.15;3.25;;;;;;;;;;5002147;28;20041;-60
2023/06/18 11:46:30;;;;;;;5.95;3.38;;;;;;;;;;5002384;28;20044;-60
2023/06/18 11:48:59;;;;;;;5.80;3.60;;;;;;;;;;5000441;28;20038;-61
2023/06/18 11:51:26;;;;;;;7.35;3.67;;;;;;;;;;4997748;28;20132;-60
2023/06/18 11:53:53;;;;;;;6.50;3.60;;;;;;;;;;5001300;28;20049;-60
2023/06/18 11:56:26;;;;;;;7.13;3.78;;;;;;;;;;5000930;28;20042;-61
2023/06/18 11:58:53;;;;;;;;;;;;;;;;;;4998435;28;20248;-64
2023/06/18 12:01:19;;;;;;;6.00;3.47;;;;;;;;;;5001117;28;19921;-62
2023/06/18 12:03:46;;;;;;;5.72;3.20;;;;;;;;;;5002156;28;20080;-61
2023/06/18 12:06:16;;;;;;;6.53;3.47;;;;;;;;;;5003278;28;20030;-62
2023/06/18 12:08:46;;;;;;;7.13;3.95;;;;;;;;;;5001753;28;20458;-62
2023/06/18 12:11:20;;;;;;;7.40;3.70;;;;;;;;;;5005260;28;20663;-59
2023/06/18 12:13:47;;;;;;;6.47;3.78;;;;;;;;;;5022222;28;20772;-62
2023/06/18 12:16:21;;;;;;;8.60;4.18;;;;;;;;;;5022906;28;20115;-60
2023/06/18 12:18:50;;;;;;;6.72;3.60;;;;;;;;;;5003312;28;20117;-62
2023/06/18 12:21:16;;;;;;;6.63;3.83;;;;;;;;;;5025068;28;20037;-61
2023/06/18 12:23:43;;;;;;;6.82;4.03;;;;;;;;;;5023817;28;20489;-62
2023/06/18 12:26:10;;;;;;;6.68;4.20;;;;;;;;;;5021893;28;20049;-63
2023/06/18 12:28:40;;;;;;;9.23;4.55;;;;;;;;;;5019259;28;20052;-62
2023/06/18 12:31:08;;;;;;;8.38;4.72;;;;;;;;;;5005741;28;20517;-63
2023/06/18 12:33:38;;;;;;;9.02;4.63;;;;;;;;;;5022339;28;20037;-62
2023/06/18 12:36:05;;;;;;;7.55;4.72;;;;;;;;;;5021926;28;20494;-61
2023/06/18 12:38:48;;;;;;;8.77;5.15;;;;;;;;;;5019861;28;20549;-61
2023/06/18 12:41:29;;;;;;;8.50;5.13;;;;;;;;;;5021895;28;20545;-60
2023/06/18 12:43:56;;;;;;;8.35;4.80;;;;;;;;;;5021257;28;20099;-61
2023/06/18 12:46:26;;;;;;;10.05;4.35;;;;;;;;;;5002687;28;20037;-61
2023/06/18 12:48:52;;;;;;;8.88;4.60;;;;;;;;;;5021930;28;20037;-61
2023/06/18 12:51:19;;;;;;;9.32;4.72;;;;;;;;;;5021398;28;20743;-63
2023/06/18 12:53:45;;;;;;;11.55;4.65;;;;;;;;;;5022789;28;20903;-60
2023/06/18 12:56:22;;;;;;;7.88;4.72;;;;;;;;;;5018414;28;20037;-66
2023/06/18 12:58:51;;;;;;;8.07;4.65;;;;;;;;;;5019428;28;20148;-62
2023/06/18 13:01:20;;;;;;;7.70;4.45;;;;;;;;;;5021769;28;20032;-63
2023/06/18 13:03:46;;;;;;;8.55;4.93;;;;;;;;;;5002643;28;20053;-62
2023/06/18 13:06:13;;;;;;;7.65;4.55;;;;;;;;;;5019100;28;20076;-65
2023/06/18 13:08:40;;;;;;;8.75;4.47;;;;;;;;;;5019344;28;20872;-62
2023/06/18 13:11:07;;;;;;;8.48;4.93;;;;;;;;;;5019460;28;20103;-62
2023/06/18 13:13:34;;;;;;;8.73;5.13;;;;;;;;;;5018385;28;20045;-62
2023/06/18 13:16:02;;;;;;;8.13;5.25;;;;;;;;;;5019301;28;20030;-63
2023/06/18 13:18:29;;;;;;;11.75;5.13;;;;;;;;;;5017427;28;20068;-63
2023/06/18 13:20:58;;;;;;;7.45;4.57;;;;;;;;;;5020096;28;20569;-63
2023/06/18 13:23:25;;;;;;;9.02;4.75;;;;;;;;;;5018794;28;20501;-61
2023/06/18 13:25:55;;;;;;;10.32;4.85;;;;;;;;;;5019015;28;20049;-63
2023/06/18 13:28:22;;;;;;;8.90;5.22;;;;;;;;;;5017820;28;20041;-63
2023/06/18 13:30:48;;;;;;;8.48;5.40;;;;;;;;;;5019595;28;20151;-63
2023/06/18 13:33:16;;;;;;;9.13;5.72;;;;;;;;;;5019645;28;20377;-62
2023/06/18 13:35:43;;;;;;;9.57;5.22;;;;;;;;;;5018742;28;20048;-61
2023/06/18 13:38:10;;;;;;;8.93;5.40;;;;;;;;;;5018716;28;20087;-63
2023/06/18 13:40:37;;;;;;;10.23;6.25;;;;;;;;;;5018670;28;21144;-62
2023/06/18 13:43:04;;;;;;;9.15;4.88;;;;;;;;;;5018946;28;20045;-64
2023/06/18 13:45:31;;;;;;;12.13;5.93;;;;;;;;;;5018879;28;20041;-57
2023/06/18 13:47:58;;;;;;;10.10;6.18;;;;;;;;;;5018499;28;20072;-60
2023/06/18 13:50:24;;;;;;;8.93;5.28;;;;;;;;;;5017372;28;20442;-60
2023/06/18 13:52:51;;;;;;;7.65;4.88;;;;;;;;;;5018333;28;20034;-59
2023/06/18 13:55:18;;;;;;;9.30;5.78;;;;;;;;;;5000335;28;20513;-59
2023/06/18 13:57:44;;;;;;;9.18;5.78;;;;;;;;;;5016624;28;20095;-59
2023/06/18 14:00:11;;;;;;;9.23;5.53;;;;;;;;;;5018818;28;20045;-60
2023/06/18 14:02:38;;;;;;;8.68;5.68;;;;;;;;;;4999256;28;20050;-62
2023/06/18 14:05:07;;;;;;;10.00;5.90;;;;;;;;;;4999289;28;20040;-60
2023/06/18 14:07:33;;;;;;;8.70;5.55;;;;;;;;;;5015691;28;20046;-61
2023/06/18 14:10:00;;;;;;;9.77;5.38;;;;;;;;;;5016775;28;20045;-60
2023/06/18 14:12:27;;;;;;;9.10;5.68;;;;;;;;;;5017887;28;21831;-61
2023/06/18 14:14:55;;;;;;;8.80;5.20;;;;;;;;;;5019286;28;20132;-60
2023/06/18 14:17:23;;;;;;;10.02;5.65;;;;;;;;;;5017848;28;20072;-58
2023/06/18 14:19:50;;;;;;;10.07;5.50;;;;;;;;;;5013421;28;20042;-63
2023/06/18 14:22:16;;;;;;;10.18;5.47;;;;;;;;;;5024071;28;20057;-58
2023/06/18 14:24:43;;;;;;;9.07;5.43;;;;;;;;;;5013059;28;20512;-64
2023/06/18 14:27:10;;;;;;;9.23;6.05;;;;;;;;;;5023340;28;20041;-67
2023/06/18 14:29:36;;;;;;;10.48;5.95;;;;;;;;;;5011182;28;20128;-63
2023/06/18 14:32:03;;;;;;;10.00;6.28;;;;;;;;;;5022710;28;20049;-63
2023/06/18 14:34:29;;;;;;;11.05;7.05;;;;;;;;;;5024605;28;20048;-62
2023/06/18 14:36:56;;;;;;;10.95;6.10;;;;;;;;;;5023312;28;20033;-63
2023/06/18 14:39:24;;;;;;;8.25;5.40;;;;;;;;;;5022988;28;20052;-59
2023/06/18 14:41:51;;;;;;;12.10;6.03;;;;;;;;;;5023785;28;20049;-58
2023/06/18 14:44:18;;;;;;;13.68;5.78;;;;;;;;;;5023343;28;20029;-56
2023/06/18 14:46:45;;;;;;;10.88;6.22;;;;;;;;;;5023568;28;20049;-59